TAF KPIA
KPIA 081720Z 0818/0918 30009KT P6SM SKC FM091000 16014G23KT P6SM SCT040 BKN100=
METAR KPIA
WC KPIA
WS KPIA
WV KPIA